King C — WDE9278 — position and weather

sailwx.info

Track history (hours):
 
Tides and Currents Weather Stations Pressure Air Temp Water Temp Dewpoint Dewpoint Depression Visibility Wind Speed Wind Dir Waves Ship Positions

King C

Owner: Pacific Tugboat Service, San Diego, CA. More information available from US FCC via Universal Licensing System and Coast Guard Vessel Documentation Center.

Last reported at 2017-Oct-18 14:39 UTC. Time now 2017-Nov-24 18:33 UTC.
Position N 32°42' W 117°09'.
Warning: this ship's position is 37 days out of date.

Length 26 m; draft 2 m.

Type: Passenger vessel. MMSI: 338022000.

Date/timePositionNaut miles runAvg speedWind from/ knotsBaromVisibWave heightAir tempDewpointWater temp
2017-Oct-18 14:39N 32°42' W 117°09'0 0.1
2017-Oct-18 14:00N 32°42' W 117°09'9 0.4
2017-Oct-17 17:44N 32°40' W 117°19'315.0
2017-Oct-17 17:30N 32°42' W 117°22'612.1
2017-Oct-17 17:00N 32°45' W 117°29'1 2.8
2017-Oct-17 16:30N 32°44' W 117°29'2 3.1
2017-Oct-17 16:00N 32°44' W 117°27'0 0.3
2017-Oct-17 15:29N 32°44' W 117°27'  
2017-Oct-13 17:22N 32°43' W 117°11'410.2
2017-Oct-13 17:00N 32°40' W 117°14'714.6
2017-Oct-13 16:30N 32°34' W 117°19'814.9
2017-Oct-13 15:59N 32°28' W 117°25'6 9.4
2017-Oct-13 15:18N 32°33' W 117°20'415.4
2017-Oct-13 15:00N 32°36' W 117°16'714.4
2017-Oct-13 14:30N 32°43' W 117°13'  
Track history (hours):
 
Tides and Currents Weather Stations Pressure Air Temp Water Temp Dewpoint Dewpoint Depression Visibility Wind Speed Wind Dir Waves Ship Positions

King C

Owner: Pacific Tugboat Service, San Diego, CA. More information available from US FCC via Universal Licensing System and Coast Guard Vessel Documentation Center.

Last reported at 2017-Oct-18 14:39 UTC. Time now 2017-Nov-24 18:33 UTC.
Position N 32°42' W 117°09'.
Warning: this ship's position is 37 days out of date.

Length 26 m; draft 2 m.

Type: Passenger vessel. MMSI: 338022000.

Date/timePositionNaut miles runAvg speedWind from/ knotsBaromVisibWave heightAir tempDewpointWater temp
2017-Oct-18 14:39N 32°42' W 117°09'0 0.1
2017-Oct-18 14:00N 32°42' W 117°09'9 0.4
2017-Oct-17 17:44N 32°40' W 117°19'315.0
2017-Oct-17 17:30N 32°42' W 117°22'612.1
2017-Oct-17 17:00N 32°45' W 117°29'1 2.8
2017-Oct-17 16:30N 32°44' W 117°29'2 3.1
2017-Oct-17 16:00N 32°44' W 117°27'0 0.3
2017-Oct-17 15:29N 32°44' W 117°27'  
2017-Oct-13 17:22N 32°43' W 117°11'410.2
2017-Oct-13 17:00N 32°40' W 117°14'714.6
2017-Oct-13 16:30N 32°34' W 117°19'814.9
2017-Oct-13 15:59N 32°28' W 117°25'6 9.4
2017-Oct-13 15:18N 32°33' W 117°20'415.4
2017-Oct-13 15:00N 32°36' W 117°16'714.4
2017-Oct-13 14:30N 32°43' W 117°13'  

Dump ship's entire track history